createdAt,value
2018-02-02T00:00:29.686Z,3.58
2018-02-02T00:02:58.026Z,3.46
2018-02-02T00:05:26.346Z,3.42
2018-02-02T00:07:54.684Z,3.56
2018-02-02T00:10:23.001Z,3.55
2018-02-02T00:12:51.333Z,3.55
2018-02-02T00:15:19.653Z,3.58
2018-02-02T00:17:47.994Z,3.57
2018-02-02T00:20:16.317Z,3.60
2018-02-02T00:22:44.648Z,3.69
2018-02-02T00:25:12.974Z,3.64
2018-02-02T00:27:41.315Z,3.76
2018-02-02T00:30:09.634Z,3.74
2018-02-02T00:32:37.977Z,3.79
2018-02-02T00:35:06.302Z,3.76
2018-02-02T00:37:34.638Z,3.77
2018-02-02T00:40:02.953Z,3.71
2018-02-02T00:42:31.292Z,3.78
2018-02-02T00:44:59.630Z,3.90
2018-02-02T00:47:27.941Z,3.71
2018-02-02T00:49:56.273Z,3.74
2018-02-02T00:52:24.593Z,3.76
2018-02-02T00:54:52.929Z,3.74
2018-02-02T00:57:21.245Z,3.67
2018-02-02T00:59:49.590Z,3.64
2018-02-02T01:02:17.905Z,3.60
2018-02-02T01:04:46.289Z,3.73
2018-02-02T01:07:14.606Z,3.76
2018-02-02T01:09:42.941Z,3.66
2018-02-02T01:12:11.258Z,3.61
2018-02-02T01:14:39.593Z,3.63
2018-02-02T01:17:07.913Z,3.79
2018-02-02T01:19:36.249Z,3.73
2018-02-02T01:22:04.569Z,3.71
2018-02-02T01:24:32.905Z,3.75
2018-02-02T01:27:01.217Z,3.75
2018-02-02T01:29:29.564Z,3.69
2018-02-02T01:31:57.874Z,3.69
2018-02-02T01:34:26.209Z,3.71
2018-02-02T01:36:54.524Z,3.75
2018-02-02T01:39:22.858Z,3.75
2018-02-02T01:41:51.173Z,3.73
2018-02-02T01:44:19.510Z,3.80
2018-02-02T01:46:47.846Z,3.82
2018-02-02T01:49:16.165Z,3.79
2018-02-02T01:51:44.485Z,3.87
2018-02-02T01:54:12.818Z,3.90
2018-02-02T01:56:41.133Z,3.82
2018-02-02T01:59:09.474Z,3.82
2018-02-02T02:01:37.785Z,3.88
2018-02-02T02:04:06.121Z,3.96
2018-02-02T02:06:34.442Z,3.91
2018-02-02T02:09:02.781Z,3.88
2018-02-02T02:11:31.093Z,3.91
2018-02-02T02:13:59.429Z,3.99
2018-02-02T02:16:27.745Z,3.89
2018-02-02T02:18:56.086Z,3.93
2018-02-02T02:21:24.401Z,3.90
2018-02-02T02:23:52.741Z,3.99
2018-02-02T02:26:21.058Z,3.99
2018-02-02T02:28:49.389Z,4.08
2018-02-02T02:31:17.704Z,4.10
2018-02-02T02:33:46.050Z,3.97
2018-02-02T02:36:14.369Z,4.07
2018-02-02T02:38:42.710Z,3.97
2018-02-02T02:41:11.025Z,4.05
2018-02-02T02:43:39.341Z,3.99
2018-02-02T02:46:07.673Z,3.98
2018-02-02T02:48:35.989Z,3.96
2018-02-02T02:51:04.333Z,4.00
2018-02-02T02:53:32.653Z,3.99
2018-02-02T02:56:00.993Z,3.97
2018-02-02T02:58:29.302Z,4.08
2018-02-02T03:00:57.645Z,3.95
2018-02-02T03:03:25.961Z,3.94
2018-02-02T03:05:54.293Z,4.07
2018-02-02T03:08:22.609Z,3.97
2018-02-02T03:10:50.941Z,4.03
2018-02-02T03:13:19.252Z,4.05
2018-02-02T03:15:47.585Z,4.06
2018-02-02T03:18:15.901Z,4.03
2018-02-02T03:20:44.238Z,4.07
2018-02-02T03:23:12.549Z,4.00
2018-02-02T03:25:40.886Z,3.96
2018-02-02T03:28:09.201Z,4.02
2018-02-02T03:30:37.540Z,3.98
2018-02-02T03:33:05.857Z,4.04
2018-02-02T03:35:34.185Z,4.14
2018-02-02T03:38:02.497Z,4.24
2018-02-02T03:40:30.843Z,4.11
2018-02-02T03:42:59.151Z,4.17
2018-02-02T03:45:27.485Z,4.10
2018-02-02T03:47:55.794Z,4.17
2018-02-02T03:50:24.125Z,4.14
2018-02-02T03:52:52.438Z,4.14
2018-02-02T03:55:20.773Z,4.20
2018-02-02T03:57:49.085Z,4.26
2018-02-02T04:00:17.417Z,4.15
2018-02-02T04:02:45.729Z,4.19
2018-02-02T04:05:14.062Z,4.18
2018-02-02T04:07:42.377Z,4.16
2018-02-02T04:10:10.714Z,4.11
2018-02-02T04:12:39.025Z,4.13
2018-02-02T04:15:07.365Z,4.15
2018-02-02T04:17:35.682Z,4.16
2018-02-02T04:20:04.009Z,4.13
2018-02-02T04:22:32.326Z,4.10
2018-02-02T04:25:00.653Z,4.15
2018-02-02T04:27:28.960Z,4.21
2018-02-02T04:29:57.290Z,4.27
2018-02-02T04:32:25.605Z,4.22
2018-02-02T04:34:53.938Z,4.32
2018-02-02T04:37:22.245Z,4.19
2018-02-02T04:39:50.573Z,4.16
2018-02-02T04:42:18.889Z,4.21
2018-02-02T04:44:47.197Z,4.23
2018-02-02T04:47:15.525Z,4.19
2018-02-02T04:49:43.838Z,4.29
2018-02-02T04:52:12.169Z,4.25
2018-02-02T04:54:40.477Z,4.33
2018-02-02T04:57:08.817Z,4.28
2018-02-02T04:59:37.125Z,4.20
2018-02-02T05:02:05.463Z,4.29
2018-02-02T05:04:33.766Z,4.28
2018-02-02T05:07:02.105Z,4.30
2018-02-02T05:09:30.413Z,4.17
2018-02-02T05:11:58.753Z,4.26
2018-02-02T05:14:27.074Z,4.25
2018-02-02T05:16:55.414Z,4.14
2018-02-02T05:19:23.725Z,4.09
2018-02-02T05:21:52.108Z,4.07
2018-02-02T05:24:20.374Z,4.07
2018-02-02T05:26:48.734Z,4.11
2018-02-02T05:29:17.056Z,4.06
2018-02-02T05:31:45.380Z,3.96
2018-02-02T05:34:13.694Z,4.04
2018-02-02T05:36:42.033Z,3.88
2018-02-02T05:39:11.361Z,3.97
2018-02-02T05:41:39.765Z,3.96
2018-02-02T05:44:08.083Z,3.85
2018-02-02T05:46:36.416Z,3.88
2018-02-02T05:49:04.725Z,3.92
2018-02-02T05:51:33.066Z,3.86
2018-02-02T05:54:01.386Z,3.80
2018-02-02T05:56:29.716Z,3.73
2018-02-02T05:58:58.033Z,3.82
2018-02-02T06:01:26.369Z,3.77
2018-02-02T06:03:54.722Z,3.68
2018-02-02T06:06:23.053Z,3.82
2018-02-02T06:08:51.366Z,3.85
2018-02-02T06:11:19.705Z,3.83
2018-02-02T06:13:48.026Z,3.71
2018-02-02T06:16:16.366Z,3.74
2018-02-02T06:18:44.690Z,3.67
2018-02-02T06:21:13.038Z,3.65
2018-02-02T06:23:41.352Z,3.64
2018-02-02T06:26:09.681Z,3.67
2018-02-02T06:28:37.998Z,3.59
2018-02-02T06:31:06.334Z,3.47
2018-02-02T06:33:34.644Z,3.61
2018-02-02T06:36:02.986Z,3.63
2018-02-02T06:38:31.294Z,3.64
2018-02-02T06:40:59.636Z,3.55
2018-02-02T06:43:27.954Z,3.59
2018-02-02T06:45:56.515Z,3.58
2018-02-02T06:48:25.049Z,3.60
2018-02-02T06:50:53.361Z,3.50
2018-02-02T06:53:21.693Z,3.45
2018-02-02T06:55:50.010Z,3.45
2018-02-02T06:58:18.337Z,3.45
2018-02-02T07:00:46.653Z,3.51
2018-02-02T07:03:14.981Z,3.46
2018-02-02T07:05:43.298Z,3.39
2018-02-02T07:08:11.630Z,3.46
2018-02-02T07:10:39.933Z,3.53
2018-02-02T07:13:08.277Z,3.60
2018-02-02T07:15:36.597Z,3.52
2018-02-02T07:18:04.937Z,3.68
2018-02-02T07:20:33.257Z,3.60
2018-02-02T07:23:01.598Z,3.57
2018-02-02T07:25:29.921Z,3.62
2018-02-02T07:27:58.262Z,3.61
2018-02-02T07:30:26.578Z,3.58
2018-02-02T07:32:54.922Z,3.63
2018-02-02T07:35:23.242Z,3.63
2018-02-02T07:37:51.612Z,3.70
2018-02-02T07:40:19.898Z,3.67
2018-02-02T07:42:48.232Z,3.70
2018-02-02T07:45:16.554Z,3.81
2018-02-02T07:47:44.891Z,3.81
2018-02-02T07:50:13.212Z,3.86
2018-02-02T07:52:41.533Z,3.78
2018-02-02T07:55:09.849Z,3.85
2018-02-02T07:57:38.186Z,3.82
2018-02-02T08:00:06.493Z,3.84
2018-02-02T08:02:34.835Z,3.74
2018-02-02T08:05:03.146Z,3.83
2018-02-02T08:07:31.487Z,3.89
2018-02-02T08:09:59.797Z,3.85
2018-02-02T08:12:28.126Z,3.88
2018-02-02T08:14:56.442Z,3.92
2018-02-02T08:17:24.768Z,3.90
2018-02-02T08:19:53.085Z,4.01
2018-02-02T08:22:21.421Z,4.03
2018-02-02T08:24:49.730Z,4.05
2018-02-02T08:27:18.070Z,4.16
2018-02-02T08:29:46.394Z,4.24
2018-02-02T08:32:14.721Z,4.14
2018-02-02T08:34:43.029Z,4.10
2018-02-02T08:37:11.353Z,4.04
2018-02-02T08:39:40.520Z,4.14
2018-02-02T08:42:08.833Z,4.15
2018-02-02T08:44:38.084Z,4.07
2018-02-02T08:47:06.449Z,4.05
2018-02-02T08:49:34.755Z,4.10
2018-02-02T08:52:03.057Z,4.04
2018-02-02T08:54:31.381Z,3.98
2018-02-02T08:56:59.718Z,3.97
2018-02-02T08:59:28.018Z,3.98
2018-02-02T09:02:01.954Z,4.04
2018-02-02T09:04:30.282Z,4.06
2018-02-02T09:06:58.585Z,4.11
2018-02-02T09:09:26.908Z,4.10
2018-02-02T09:11:55.226Z,4.11
2018-02-02T09:14:23.545Z,4.02
2018-02-02T09:16:51.849Z,4.10
2018-02-02T09:19:20.174Z,4.05
2018-02-02T09:21:53.917Z,3.93
2018-02-02T09:24:22.241Z,4.00
2018-02-02T09:26:50.551Z,4.02
2018-02-02T09:29:18.878Z,4.13
2018-02-02T09:31:47.185Z,4.07
2018-02-02T09:34:15.504Z,4.08
2018-02-02T09:36:43.809Z,4.25
2018-02-02T09:39:12.165Z,4.26
2018-02-02T09:41:40.474Z,4.12
2018-02-02T09:44:08.793Z,4.12
2018-02-02T09:46:37.097Z,4.17
2018-02-02T09:49:05.425Z,4.11
2018-02-02T09:51:33.733Z,4.00
2018-02-02T09:54:02.066Z,4.02
2018-02-02T09:56:30.374Z,3.99
2018-02-02T09:58:58.700Z,4.09
2018-02-02T10:01:27.009Z,4.14
2018-02-02T10:03:55.339Z,4.11
2018-02-02T10:06:23.646Z,4.10
2018-02-02T10:08:51.974Z,4.18
2018-02-02T10:11:20.277Z,4.17
2018-02-02T10:13:48.605Z,4.20
2018-02-02T10:16:16.913Z,4.08
2018-02-02T10:18:45.322Z,4.17
2018-02-02T10:21:13.624Z,4.13
2018-02-02T10:23:41.969Z,4.16
2018-02-02T10:26:10.269Z,4.16
2018-02-02T10:28:38.597Z,4.24
2018-02-02T10:31:06.902Z,4.22
2018-02-02T10:33:35.229Z,4.21
2018-02-02T10:36:03.534Z,4.17
2018-02-02T10:38:31.865Z,4.29
2018-02-02T10:41:00.174Z,4.23
2018-02-02T10:43:28.501Z,4.24
2018-02-02T10:45:56.805Z,4.30
2018-02-02T10:48:25.134Z,4.41
2018-02-02T10:50:53.433Z,4.27
2018-02-02T10:53:21.765Z,4.35
2018-02-02T10:55:50.078Z,4.30
2018-02-02T10:58:18.405Z,4.32
2018-02-02T11:00:52.389Z,4.38
2018-02-02T11:03:20.717Z,4.42
2018-02-02T11:05:49.046Z,4.37
2018-02-02T11:08:17.354Z,4.33
2018-02-02T11:10:45.696Z,4.29
2018-02-02T11:13:13.985Z,4.49
2018-02-02T11:15:42.313Z,4.41
2018-02-02T11:18:10.626Z,4.39
2018-02-02T11:20:38.952Z,4.35
2018-02-02T11:23:07.261Z,4.34
2018-02-02T11:25:35.597Z,4.34
2018-02-02T11:28:03.910Z,4.31
2018-02-02T11:30:32.249Z,4.28
2018-02-02T11:33:00.565Z,4.31
2018-02-02T11:35:28.906Z,4.41
2018-02-02T11:37:57.224Z,4.39
2018-02-02T11:40:25.656Z,4.46
2018-02-02T11:42:53.954Z,4.53
2018-02-02T11:45:22.285Z,4.43
2018-02-02T11:47:50.602Z,4.37
2018-02-02T11:50:18.937Z,4.36
2018-02-02T11:52:47.250Z,4.45
2018-02-02T11:55:15.611Z,4.52
2018-02-02T11:57:43.909Z,4.36
2018-02-02T12:00:12.241Z,4.27
2018-02-02T12:02:40.561Z,4.32
2018-02-02T12:05:08.893Z,4.43
2018-02-02T12:07:37.213Z,4.34
2018-02-02T12:10:05.542Z,4.32
2018-02-02T12:12:33.853Z,4.41
2018-02-02T12:15:02.197Z,4.46
2018-02-02T12:17:30.517Z,4.35
2018-02-02T12:19:59.626Z,4.49
2018-02-02T12:22:29.405Z,4.52
2018-02-02T12:25:03.377Z,4.45
2018-02-02T12:30:40.127Z,4.46
2018-02-02T12:33:12.279Z,4.48
2018-02-02T12:35:43.100Z,4.61
2018-02-02T12:38:11.423Z,4.58
2018-02-02T12:40:39.751Z,4.63
2018-02-02T12:43:08.074Z,4.71
2018-02-02T12:45:36.441Z,4.93
2018-02-02T12:48:04.761Z,5.06
2018-02-02T12:50:44.977Z,5.15
2018-02-02T12:53:13.297Z,5.21
2018-02-02T12:55:42.633Z,5.33
2018-02-02T12:58:11.033Z,5.40
2018-02-02T13:00:39.378Z,5.36
2018-02-02T13:03:07.791Z,5.40
2018-02-02T13:05:36.132Z,5.37
2018-02-02T13:08:04.445Z,5.40
2018-02-02T13:10:33.349Z,5.27
2018-02-02T13:13:01.680Z,5.19
2018-02-02T13:15:30.077Z,5.29
2018-02-02T13:17:58.597Z,5.43
2018-02-02T13:20:26.939Z,5.36
2018-02-02T13:22:55.317Z,5.33
2018-02-02T13:25:23.653Z,5.40
2018-02-02T13:27:52.073Z,5.38
2018-02-02T13:30:20.657Z,5.47
2018-02-02T13:32:48.976Z,5.51
2018-02-02T13:35:17.321Z,5.48
2018-02-02T13:37:45.682Z,5.63
2018-02-02T13:40:14.022Z,5.58
2018-02-02T13:42:42.357Z,5.65
2018-02-02T13:45:10.719Z,5.58
2018-02-02T13:47:39.033Z,5.65
2018-02-02T13:50:07.382Z,5.80
2018-02-02T13:52:35.740Z,5.70
2018-02-02T13:55:04.083Z,5.74
2018-02-02T13:57:32.501Z,5.72
2018-02-02T14:00:00.841Z,5.68
2018-02-02T14:02:29.229Z,5.81
2018-02-02T14:04:57.545Z,5.83
2018-02-02T14:07:25.896Z,5.83
2018-02-02T14:09:54.375Z,5.89
2018-02-02T14:12:22.753Z,5.94
2018-02-02T14:14:51.540Z,5.72
2018-02-02T14:17:19.917Z,5.69
2018-02-02T14:19:48.238Z,6.30
2018-02-02T14:22:17.006Z,6.19
2018-02-02T14:24:45.325Z,5.95
2018-02-02T14:27:13.662Z,5.95
2018-02-02T14:29:41.981Z,5.69
2018-02-02T14:32:10.323Z,5.88
2018-02-02T14:34:38.641Z,5.71
2018-02-02T14:37:06.985Z,5.76
2018-02-02T14:39:35.307Z,5.72
2018-02-02T14:42:03.647Z,5.89
2018-02-02T14:44:31.953Z,6.36
2018-02-02T14:47:00.297Z,6.36
2018-02-02T14:49:28.605Z,6.34
2018-02-02T14:51:56.952Z,6.22
2018-02-02T14:54:25.813Z,6.09
2018-02-02T14:56:54.145Z,6.03
2018-02-02T14:59:22.493Z,6.13
2018-02-02T15:01:50.809Z,5.98
2018-02-02T15:04:19.121Z,6.10
2018-02-02T15:06:47.462Z,5.97
2018-02-02T15:09:15.779Z,5.86
2018-02-02T15:11:44.119Z,6.06
2018-02-02T15:14:12.521Z,5.77
2018-02-02T15:16:40.859Z,6.05
2018-02-02T15:19:09.174Z,5.92
2018-02-02T15:21:37.509Z,5.89
2018-02-02T15:24:05.825Z,6.00
2018-02-02T15:26:34.165Z,5.87
2018-02-02T15:29:02.480Z,5.66
2018-02-02T15:31:30.817Z,5.60
2018-02-02T15:33:59.129Z,5.55
2018-02-02T15:36:27.469Z,5.63
2018-02-02T15:38:55.806Z,5.53
2018-02-02T15:41:24.144Z,5.55
2018-02-02T15:43:52.470Z,5.43
2018-02-02T15:46:20.809Z,5.49
2018-02-02T15:48:49.125Z,5.52
2018-02-02T15:51:17.461Z,5.56
2018-02-02T15:53:45.776Z,5.51
2018-02-02T15:56:14.117Z,5.44
2018-02-02T15:58:42.421Z,5.48
2018-02-02T16:01:10.757Z,5.33
2018-02-02T16:03:39.092Z,5.56
2018-02-02T16:06:08.370Z,5.56
2018-02-02T16:08:36.705Z,5.66
2018-02-02T16:11:05.026Z,5.63
2018-02-02T16:13:33.361Z,5.62
2018-02-02T16:16:01.682Z,5.51
2018-02-02T16:18:30.020Z,5.66
2018-02-02T16:20:58.332Z,5.56
2018-02-02T16:23:26.670Z,5.34
2018-02-02T16:25:54.984Z,5.34
2018-02-02T16:28:23.326Z,5.31
2018-02-02T16:30:51.641Z,5.19
2018-02-02T16:33:19.994Z,5.29
2018-02-02T16:35:48.313Z,5.17
2018-02-02T16:38:16.653Z,5.14
2018-02-02T16:40:44.978Z,5.26
2018-02-02T16:43:13.323Z,5.28
2018-02-02T16:45:41.637Z,5.37
2018-02-02T16:48:09.976Z,5.26
2018-02-02T16:50:38.961Z,5.30
2018-02-02T16:53:07.301Z,5.19
2018-02-02T16:55:35.621Z,5.20
2018-02-02T16:58:03.958Z,5.24
2018-02-02T17:00:32.273Z,5.34
2018-02-02T17:03:00.613Z,5.17
2018-02-02T17:05:28.941Z,5.23
2018-02-02T17:07:57.283Z,5.19
2018-02-02T17:10:25.597Z,5.20
2018-02-02T17:12:54.036Z,5.19
2018-02-02T17:15:22.678Z,5.26
2018-02-02T17:17:51.049Z,5.19
2018-02-02T17:20:19.368Z,5.25
2018-02-02T17:22:47.710Z,5.32
2018-02-02T17:25:16.034Z,5.20
2018-02-02T17:27:44.378Z,5.13
2018-02-02T17:30:12.710Z,5.24
2018-02-02T17:32:41.067Z,5.22
2018-02-02T17:35:09.377Z,5.27
2018-02-02T17:37:37.727Z,5.26
2018-02-02T17:40:06.042Z,5.03
2018-02-02T17:42:34.518Z,5.15
2018-02-02T17:45:02.837Z,5.14
2018-02-02T17:47:32.140Z,5.20
2018-02-02T17:50:00.718Z,5.05
2018-02-02T17:52:29.102Z,4.89
2018-02-02T17:54:57.430Z,4.83
2018-02-02T17:57:25.768Z,4.90
2018-02-02T17:59:54.212Z,4.78
2018-02-02T18:02:25.167Z,4.80
2018-02-02T18:04:53.618Z,4.85
2018-02-02T18:07:22.849Z,4.87
2018-02-02T18:09:51.448Z,4.87
2018-02-02T18:12:19.783Z,4.76
2018-02-02T18:14:48.105Z,4.78
2018-02-02T18:17:16.413Z,4.92
2018-02-02T18:19:44.750Z,5.09
2018-02-02T18:22:13.052Z,5.05
2018-02-02T18:24:41.393Z,4.76
2018-02-02T18:27:09.705Z,4.87
2018-02-02T18:29:38.038Z,4.79
2018-02-02T18:32:06.341Z,4.81
2018-02-02T18:34:34.677Z,4.83
2018-02-02T18:37:03.058Z,4.89
2018-02-02T18:39:32.265Z,4.83
2018-02-02T18:42:00.613Z,4.78
2018-02-02T18:44:29.045Z,4.77
2018-02-02T18:46:57.353Z,4.70
2018-02-02T18:49:25.685Z,4.73
2018-02-02T18:51:54.006Z,4.67
2018-02-02T18:54:22.346Z,4.67
2018-02-02T18:56:50.649Z,4.77
2018-02-02T18:59:18.985Z,4.73
2018-02-02T19:01:47.297Z,4.70
2018-02-02T19:04:15.635Z,4.80
2018-02-02T19:06:43.941Z,4.74
2018-02-02T19:09:12.278Z,4.78
2018-02-02T19:11:40.606Z,4.95
2018-02-02T19:14:08.942Z,4.88
2018-02-02T19:16:37.249Z,4.84
2018-02-02T19:19:05.608Z,4.84
2018-02-02T19:21:40.276Z,4.84
2018-02-02T19:24:08.592Z,4.84
2018-02-02T19:26:36.929Z,4.82
2018-02-02T19:29:05.436Z,4.70
2018-02-02T19:31:33.775Z,4.85
2018-02-02T19:34:02.159Z,4.80
2018-02-02T19:36:30.469Z,4.83
2018-02-02T19:38:59.512Z,4.85
2018-02-02T19:41:27.834Z,4.74
2018-02-02T19:43:56.175Z,4.80
2018-02-02T19:46:24.493Z,4.71
2018-02-02T19:49:02.214Z,4.77
2018-02-02T19:51:31.620Z,4.86
2018-02-02T19:54:11.787Z,4.95
2018-02-02T19:56:50.716Z,4.86
2018-02-02T19:59:19.049Z,4.96
2018-02-02T20:01:49.028Z,4.96
2018-02-02T20:04:18.013Z,4.84
2018-02-02T20:06:46.398Z,4.87
2018-02-02T20:09:14.733Z,4.76
2018-02-02T20:11:43.047Z,4.87
2018-02-02T20:14:11.381Z,4.89
2018-02-02T20:16:39.699Z,4.85
2018-02-02T20:19:08.038Z,4.95
2018-02-02T20:21:37.380Z,4.94
2018-02-02T20:24:05.717Z,4.90
2018-02-02T20:26:34.096Z,4.86
2018-02-02T20:29:02.474Z,4.91
2018-02-02T20:31:30.789Z,4.80
2018-02-02T20:33:59.571Z,4.93
2018-02-02T20:36:28.298Z,4.89
2018-02-02T20:38:59.087Z,4.81
2018-02-02T20:41:28.194Z,4.81
2018-02-02T20:43:57.135Z,4.77
2018-02-02T20:46:26.156Z,4.78
2018-02-02T20:48:54.482Z,4.72
2018-02-02T20:51:22.907Z,4.77
2018-02-02T20:53:51.209Z,4.74
2018-02-02T20:56:31.395Z,4.83
2018-02-02T20:58:59.740Z,4.71
2018-02-02T21:01:30.002Z,4.71
2018-02-02T21:03:59.340Z,4.63
2018-02-02T21:06:28.935Z,4.72
2018-02-02T21:08:58.945Z,4.69
2018-02-02T21:11:37.908Z,4.69
2018-02-02T21:14:12.398Z,4.68
2018-02-02T21:16:49.831Z,4.72
2018-02-02T21:19:18.396Z,4.74
2018-02-02T21:22:00.416Z,4.68
2018-02-02T21:24:36.257Z,4.73
2018-02-02T21:27:08.932Z,4.67
2018-02-02T21:29:37.473Z,4.70
2018-02-02T21:32:05.801Z,4.62
2018-02-02T21:34:34.133Z,4.64
2018-02-02T21:37:02.457Z,4.62
2018-02-02T21:39:30.790Z,4.54
2018-02-02T21:41:59.105Z,4.53
2018-02-02T21:44:27.446Z,4.53
2018-02-02T21:46:55.757Z,4.58
2018-02-02T21:49:25.073Z,4.41
2018-02-02T21:51:53.387Z,4.48
2018-02-02T21:54:21.705Z,4.58
2018-02-02T21:56:50.040Z,4.40
2018-02-02T21:59:18.356Z,4.55
2018-02-02T22:01:46.690Z,4.55
2018-02-02T22:04:15.006Z,4.51
2018-02-02T22:06:43.345Z,4.49
2018-02-02T22:09:11.661Z,4.49
2018-02-02T22:11:40.002Z,4.41
2018-02-02T22:14:08.320Z,4.29
2018-02-02T22:16:36.661Z,4.36
2018-02-02T22:19:04.987Z,4.32
2018-02-02T22:21:33.378Z,4.34
2018-02-02T22:24:01.674Z,4.39
2018-02-02T22:26:30.013Z,4.22
2018-02-02T22:28:58.337Z,4.20
2018-02-02T22:31:26.686Z,4.16
2018-02-02T22:33:54.996Z,4.14
2018-02-02T22:36:24.344Z,4.17
2018-02-02T22:38:52.648Z,4.19
2018-02-02T22:41:20.981Z,4.22
2018-02-02T22:43:49.348Z,4.23
2018-02-02T22:46:17.673Z,4.16
2018-02-02T22:48:45.993Z,4.15
2018-02-02T22:51:14.331Z,4.21
2018-02-02T22:53:42.643Z,4.26
2018-02-02T22:56:10.977Z,4.28
2018-02-02T22:58:39.297Z,4.29
2018-02-02T23:01:07.628Z,4.25
2018-02-02T23:03:35.942Z,4.23
2018-02-02T23:06:04.281Z,4.28
2018-02-02T23:08:32.589Z,4.27
2018-02-02T23:11:00.921Z,4.14
2018-02-02T23:13:29.229Z,4.26
2018-02-02T23:15:57.566Z,4.27
2018-02-02T23:18:25.876Z,4.32
2018-02-02T23:20:54.213Z,4.36
2018-02-02T23:23:22.525Z,4.40
2018-02-02T23:25:50.852Z,4.37
2018-02-02T23:28:19.170Z,4.38
2018-02-02T23:30:47.498Z,4.41
2018-02-02T23:33:15.808Z,4.39
2018-02-02T23:35:44.143Z,4.40
2018-02-02T23:38:12.445Z,4.36
2018-02-02T23:40:40.786Z,4.48
2018-02-02T23:43:09.097Z,4.36
2018-02-02T23:45:37.434Z,4.23
2018-02-02T23:48:05.745Z,4.32
2018-02-02T23:50:34.086Z,4.27
2018-02-02T23:53:02.426Z,4.21
2018-02-02T23:55:30.750Z,4.21
2018-02-02T23:57:59.077Z,4.14
